createdAt,value
2023-02-26T00:03:05.182Z,92099.00
2023-02-26T00:08:08.378Z,92112.19
2023-02-26T00:13:12.182Z,92095.91
2023-02-26T00:18:16.868Z,92104.03
2023-02-26T00:23:20.413Z,92098.25
2023-02-26T00:28:23.921Z,92107.69
2023-02-26T00:33:27.877Z,92104.19
2023-02-26T00:38:35.073Z,92080.34
2023-02-26T00:43:38.826Z,92072.44
2023-02-26T00:49:03.987Z,92069.06
2023-02-26T00:54:26.571Z,92062.63
2023-02-26T00:59:29.525Z,92057.84
2023-02-26T01:04:32.849Z,92060.63
2023-02-26T01:09:38.159Z,92070.16
2023-02-26T01:14:41.388Z,92057.81
2023-02-26T01:19:51.042Z,92042.53
2023-02-26T01:25:06.126Z,92040.03
2023-02-26T01:30:10.472Z,92043.63
2023-02-26T01:35:44.154Z,92032.22
2023-02-26T01:41:12.211Z,92008.94
2023-02-26T01:46:24.705Z,92001.00
2023-02-26T01:51:53.383Z,91979.78
2023-02-26T01:57:13.895Z,91963.63
2023-02-26T02:02:22.515Z,91964.44
2023-02-26T02:07:25.678Z,91949.81
2023-02-26T02:12:58.126Z,91955.19
2023-02-26T02:18:33.431Z,91958.69
2023-02-26T02:23:49.451Z,91958.78
2023-02-26T02:29:26.573Z,91967.06
2023-02-26T02:34:32.832Z,91969.78
2023-02-26T02:39:56.043Z,91969.09
2023-02-26T02:45:07.629Z,91962.47
2023-02-26T02:50:36.001Z,91950.94
2023-02-26T02:55:47.105Z,91954.16
2023-02-26T03:00:54.936Z,91950.72
2023-02-26T03:05:58.176Z,91941.72
2023-02-26T03:11:01.441Z,91947.63
2023-02-26T03:16:41.909Z,91943.31
2023-02-26T03:21:57.796Z,91962.50
2023-02-26T03:27:50.188Z,91966.69
2023-02-26T03:33:04.004Z,91967.06
2023-02-26T03:38:12.878Z,91963.38
2023-02-26T03:43:31.718Z,91968.06
2023-02-26T03:48:37.300Z,91961.25
2023-02-26T03:53:56.597Z,91974.38
2023-02-26T03:59:03.274Z,91990.66
2023-02-26T04:04:42.689Z,91993.91
2023-02-26T04:09:50.936Z,91986.22
2023-02-26T04:14:59.612Z,91992.91
2023-02-26T04:20:02.857Z,91980.44
2023-02-26T04:25:06.675Z,91985.03
2023-02-26T04:30:10.874Z,91994.97
2023-02-26T04:35:15.223Z,92007.41
2023-02-26T04:40:19.831Z,91995.47
2023-02-26T04:45:23.394Z,92000.50
2023-02-26T04:50:27.435Z,92009.78
2023-02-26T04:55:30.549Z,91986.88
2023-02-26T05:00:34.033Z,91987.56
2023-02-26T05:05:37.905Z,91981.53
2023-02-26T05:10:41.052Z,91980.78
2023-02-26T05:15:44.594Z,91969.06
2023-02-26T05:20:55.980Z,91973.69
2023-02-26T05:25:59.649Z,91984.63
2023-02-26T05:31:03.600Z,91982.69
2023-02-26T05:36:07.623Z,91987.69
2023-02-26T05:41:10.935Z,91998.75
2023-02-26T05:46:14.671Z,92001.69
2023-02-26T05:51:17.660Z,92016.53
2023-02-26T05:56:21.621Z,92013.09
2023-02-26T06:01:24.991Z,92010.03
2023-02-26T06:06:28.512Z,92007.53
2023-02-26T06:11:34.081Z,92000.78
2023-02-26T06:16:37.281Z,91998.59
2023-02-26T06:21:40.460Z,92008.91
2023-02-26T06:26:43.464Z,91996.63
2023-02-26T06:31:47.253Z,92007.38
2023-02-26T06:36:50.674Z,91999.09
2023-02-26T06:41:54.161Z,92004.63
2023-02-26T06:46:57.219Z,92011.03
2023-02-26T06:52:00.563Z,92000.69
2023-02-26T06:57:03.914Z,92011.50
2023-02-26T07:02:07.017Z,92017.19
2023-02-26T07:07:11.018Z,92013.88
2023-02-26T07:12:14.804Z,92030.59
2023-02-26T07:17:21.586Z,92038.44
2023-02-26T07:22:25.251Z,92038.03
2023-02-26T07:27:30.383Z,92036.72
2023-02-26T07:32:34.183Z,92047.81
2023-02-26T07:37:37.745Z,92032.47
2023-02-26T07:42:41.241Z,92030.97
2023-02-26T07:47:45.211Z,92020.22
2023-02-26T07:52:49.077Z,92035.31
2023-02-26T07:57:52.243Z,92038.84
2023-02-26T08:02:55.725Z,92056.44
2023-02-26T08:07:59.197Z,92054.47
2023-02-26T08:13:03.102Z,92080.22
2023-02-26T08:18:06.874Z,92106.69
2023-02-26T08:23:09.914Z,92118.03
2023-02-26T08:28:14.005Z,92114.56
2023-02-26T08:33:17.097Z,92103.59
2023-02-26T08:38:21.646Z,92103.16
2023-02-26T08:43:25.978Z,92104.03
2023-02-26T08:48:29.242Z,92113.41
2023-02-26T08:53:33.012Z,92108.34
2023-02-26T08:58:36.668Z,92115.00
2023-02-26T09:03:40.124Z,92148.47
2023-02-26T09:08:43.431Z,92144.06
2023-02-26T09:13:46.404Z,92169.22
2023-02-26T09:18:50.550Z,92164.50
2023-02-26T09:23:53.663Z,92168.59
2023-02-26T09:28:57.550Z,92168.47
2023-02-26T09:34:00.928Z,92170.78
2023-02-26T09:39:04.833Z,92165.84
2023-02-26T09:44:13.661Z,92158.69
2023-02-26T09:49:23.750Z,92180.03
2023-02-26T09:54:32.357Z,92186.53
2023-02-26T09:59:35.402Z,92184.06
2023-02-26T10:05:05.194Z,92173.00
2023-02-26T10:10:18.778Z,92179.50
2023-02-26T10:15:22.913Z,92172.75
2023-02-26T10:20:37.174Z,92179.25
2023-02-26T10:26:13.286Z,92164.09
2023-02-26T10:31:35.857Z,92171.78
2023-02-26T10:37:11.449Z,92160.78
2023-02-26T10:42:34.670Z,92154.72
2023-02-26T10:48:06.267Z,92147.38
2023-02-26T10:53:15.323Z,92149.22
2023-02-26T10:58:24.226Z,92155.06
2023-02-26T11:03:39.766Z,92154.03
2023-02-26T11:08:46.466Z,92159.53
2023-02-26T11:13:49.745Z,92168.19
2023-02-26T11:18:58.835Z,92176.63
2023-02-26T11:24:28.085Z,92180.03
2023-02-26T11:29:40.461Z,92174.81
2023-02-26T11:34:55.519Z,92180.25
2023-02-26T11:40:14.298Z,92188.03
2023-02-26T11:45:20.396Z,92205.34
2023-02-26T11:50:24.200Z,92186.41
2023-02-26T11:55:34.857Z,92196.63
2023-02-26T12:00:40.147Z,92182.38
2023-02-26T12:05:43.745Z,92188.56
2023-02-26T12:11:17.802Z,92193.03
2023-02-26T12:16:34.322Z,92199.78
2023-02-26T12:21:43.572Z,92198.47
2023-02-26T12:27:05.027Z,92212.13
2023-02-26T12:32:27.741Z,92206.75
2023-02-26T12:38:08.498Z,92216.06
2023-02-26T12:43:44.343Z,92214.88
2023-02-26T12:49:04.642Z,92223.41
2023-02-26T12:54:12.437Z,92230.28
2023-02-26T12:59:18.573Z,92242.16
2023-02-26T13:04:42.225Z,92231.72
2023-02-26T13:10:04.140Z,92247.59
2023-02-26T13:15:08.141Z,92238.31
2023-02-26T13:20:23.413Z,92237.44
2023-02-26T13:25:49.052Z,92245.78
2023-02-26T13:30:56.466Z,92262.94
2023-02-26T13:36:02.017Z,92264.50
2023-02-26T13:41:27.613Z,92265.34
2023-02-26T13:46:40.373Z,92270.50
2023-02-26T13:51:46.712Z,92259.16
2023-02-26T13:56:54.476Z,92252.00
2023-02-26T14:02:03.124Z,92269.69
2023-02-26T14:07:16.638Z,92283.41
2023-02-26T14:12:24.732Z,92293.84
2023-02-26T14:17:52.878Z,92287.66
2023-02-26T14:22:58.611Z,92292.81
2023-02-26T14:28:30.723Z,92310.22
2023-02-26T14:33:42.862Z,92316.41
2023-02-26T14:38:48.921Z,92315.91
2023-02-26T14:44:02.375Z,92310.50
2023-02-26T14:49:23.976Z,92313.16
2023-02-26T14:54:34.809Z,92328.94
2023-02-26T14:59:39.350Z,92330.38
2023-02-26T15:05:07.777Z,92337.56
2023-02-26T15:10:36.490Z,92330.19
2023-02-26T15:15:57.726Z,92340.16
2023-02-26T15:21:36.084Z,92350.44
2023-02-26T15:26:48.089Z,92338.94
2023-02-26T15:32:01.707Z,92354.63
2023-02-26T15:37:05.307Z,92337.19
2023-02-26T15:42:11.110Z,92380.59
2023-02-26T15:47:16.700Z,92385.00
2023-02-26T15:52:25.887Z,92404.91
2023-02-26T15:57:30.193Z,92415.72
2023-02-26T16:02:33.544Z,92392.81
2023-02-26T16:07:36.560Z,92393.16
2023-02-26T16:12:44.052Z,92410.75
2023-02-26T16:17:51.168Z,92406.28
2023-02-26T16:23:03.188Z,92404.81
2023-02-26T16:28:15.137Z,92402.94
2023-02-26T16:33:21.626Z,92412.19
2023-02-26T16:38:44.437Z,92411.16
2023-02-26T16:43:50.719Z,92429.94
2023-02-26T16:48:59.016Z,92419.84
2023-02-26T16:54:07.828Z,92430.41
2023-02-26T16:59:27.089Z,92468.63
2023-02-26T17:04:35.015Z,92482.50
2023-02-26T17:09:43.219Z,92493.78
2023-02-26T17:14:53.567Z,92471.75
2023-02-26T17:19:57.222Z,92470.25
2023-02-26T17:25:01.117Z,92491.38
2023-02-26T17:30:07.343Z,92516.84
2023-02-26T17:35:24.790Z,92523.56
2023-02-26T17:40:39.645Z,92532.97
2023-02-26T17:45:44.779Z,92557.44
2023-02-26T17:50:56.657Z,92554.50
2023-02-26T17:56:00.705Z,92545.56
2023-02-26T18:01:04.858Z,92566.63
2023-02-26T18:06:08.317Z,92577.94
2023-02-26T18:11:13.872Z,92576.41
2023-02-26T18:16:21.834Z,92598.53
2023-02-26T18:21:28.949Z,92606.31
2023-02-26T18:26:49.338Z,92621.81
2023-02-26T18:31:54.315Z,92609.38
2023-02-26T18:36:58.341Z,92622.22
2023-02-26T18:42:04.543Z,92609.41
2023-02-26T18:47:11.737Z,92627.31
2023-02-26T18:52:16.091Z,92644.09
2023-02-26T18:57:19.198Z,92644.84
2023-02-26T19:02:22.967Z,92657.72
2023-02-26T19:07:26.561Z,92650.34
2023-02-26T19:12:29.619Z,92656.19
2023-02-26T19:17:33.597Z,92655.78
2023-02-26T19:22:36.644Z,92639.06
2023-02-26T19:27:40.716Z,92666.66
2023-02-26T19:32:44.571Z,92663.94
2023-02-26T19:37:49.016Z,92675.94
2023-02-26T19:42:52.529Z,92672.84
2023-02-26T19:47:55.527Z,92678.69
2023-02-26T19:52:59.423Z,92679.50
2023-02-26T19:58:02.860Z,92663.56
2023-02-26T20:03:06.611Z,92681.81
2023-02-26T20:08:10.089Z,92689.19
2023-02-26T20:13:14.747Z,92682.09
2023-02-26T20:18:18.055Z,92708.63
2023-02-26T20:23:21.763Z,92718.28
2023-02-26T20:28:26.014Z,92739.66
2023-02-26T20:33:29.458Z,92729.59
2023-02-26T20:38:34.124Z,92736.19
2023-02-26T20:43:38.660Z,92726.06
2023-02-26T20:48:43.276Z,92736.63
2023-02-26T20:53:46.325Z,92729.22
2023-02-26T20:58:50.382Z,92740.91
2023-02-26T21:03:54.389Z,92746.28
2023-02-26T21:08:57.399Z,92765.22
2023-02-26T21:14:02.246Z,92769.50
2023-02-26T21:19:05.256Z,92772.22
2023-02-26T21:24:08.564Z,92767.38
2023-02-26T21:29:11.538Z,92784.06
2023-02-26T21:34:32.755Z,92782.59
2023-02-26T21:39:38.477Z,92781.94
2023-02-26T21:44:41.579Z,92780.00
2023-02-26T21:49:44.747Z,92786.31
2023-02-26T21:54:54.525Z,92787.94
2023-02-26T22:00:02.057Z,92789.16
2023-02-26T22:05:15.134Z,92781.41
2023-02-26T22:10:18.651Z,92799.31
2023-02-26T22:15:21.780Z,92806.69
2023-02-26T22:20:24.924Z,92817.91
2023-02-26T22:25:28.512Z,92822.09
2023-02-26T22:30:31.608Z,92830.56
2023-02-26T22:35:35.600Z,92822.75
2023-02-26T22:40:38.828Z,92822.72
2023-02-26T22:45:48.124Z,92839.84
2023-02-26T22:50:51.798Z,92813.38
2023-02-26T22:55:55.184Z,92815.34
2023-02-26T23:01:06.635Z,92819.66
2023-02-26T23:06:10.227Z,92840.38
2023-02-26T23:11:13.432Z,92832.63
2023-02-26T23:16:16.641Z,92779.97
2023-02-26T23:21:19.997Z,92773.41
2023-02-26T23:26:23.610Z,92754.13
2023-02-26T23:31:27.352Z,92828.09
2023-02-26T23:36:31.010Z,92811.00
2023-02-26T23:41:34.003Z,92842.91
2023-02-26T23:46:37.866Z,92871.22
2023-02-26T23:51:41.304Z,92898.03
2023-02-26T23:56:46.971Z,92888.28
